Terminal Aerodrome Forecast
Issued by NWS

Current Version | Previous Version | Graphics & Text | Print | Product List | Glossary On
Versions: 1 2 3 4 5 6 7 8 9 10 11 12 13 14 15 16 17 18 19 20 21 22 23 24 25 26 27 28 29
651
FTUS41 KRLX 221740
TAFCKB
TAF
KCKB 221740Z 2218/2318 23008KT 6SM -SHRA VCTS OVC050CB
      TEMPO 2219/2221 5SM TSRA OVC030CB
     FM222100 23009KT P6SM VCTS OVC060CB
      TEMPO 2221/2222 4SM TSRA OVC040CB
     FM222200 22009KT P6SM VCTS OVC030CB
     FM230600 21006KT P6SM BKN030
     FM230900 22006KT P6SM BKN020
     FM231500 23007KT P6SM BKN045=

USA.gov is the U.S. government's official web portal to all federal, state and local government web resources and services.